首页
METAR-TAF:

METAR-TAF

机场 :

Sawyer County Airport

Hayward, 威斯康辛州, 美国

纬度: 46-01-14N, 经度: 091-27-01W, 海拔: 370米

当前天气观测

该预报发布于1小时和9分钟前的17:53 UTC
风速5节,风向西
温度 -8°C
湿度 67%
气压 1021 hPa
能見度: 14.5公里
阴天层高于2100英尺

METAR: KHYR 181753Z AUTO 28005KT 9SM OVC021 M08/M13 A3014 RMK AO2 SNB15E51 SLP229 P0000 60000 T10781128 11072 21083 51016

时间: 13:02 (19:02 UTC)

预报

该预报发布于1小时和21分钟前的17:41 UTC
预报有效从18日的 18点(UTC)到 19日的 18点(UTC)
风速11节,风向西转西北,有时为18节阵风
能見度: 9.7公里
阴天层高于2200英尺
小阵雪
从 18日的 2100点(UTC)
风速14节,风向西北,有时为22节阵风
能見度: 10公里
多云层高于2500英尺
附近有阵雨
从 19日的 0000点(UTC)
风速9节,风向西北,有时为16节阵风
能見度: 10公里
散云层高于2500英尺
从 19日的 0600点(UTC)
风速5节,风向西
能見度: 10公里
少量云层高于2500英尺

TAF: KHYR 181741Z 1818/1918 29011G18KT 6SM -SHSN OVC022 FM182100 31014G22KT P6SM VCSH BKN025 FM190000 31009G16KT P6SM SCT025 FM190600 28005KT P6SM FEW025

超过4000个机场的气象观测和天气预报(METAR&TAF报告)。

可查询的气象台以黄色和红色小点在地图上表示。

将鼠标移到小点上方,可查看气象台名称。

然后点击查看天气观测和预报。

如需切换地图:点击带黑十字的绿色按钮放大地图;点击带横线的绿色按钮缩小地图;或者点击绿色箭头查看邻近地区的地图。


METAR-TAF: